sensor_id;sensor_type;location;lat;lon;timestamp;P1;durP1;ratioP1;P2;durP2;ratioP2
2175;SDS011;1094;49.902;10.876;2023-08-07T00:00:41;8.77;;;8.47;;
2175;SDS011;1094;49.902;10.876;2023-08-07T00:03:07;9.10;;;8.80;;
2175;SDS011;1094;49.902;10.876;2023-08-07T00:05:33;8.90;;;8.60;;
2175;SDS011;1094;49.902;10.876;2023-08-07T00:07:59;8.53;;;8.23;;
2175;SDS011;1094;49.902;10.876;2023-08-07T00:10:25;10.07;;;9.67;;
2175;SDS011;1094;49.902;10.876;2023-08-07T00:12:51;8.93;;;8.53;;
2175;SDS011;1094;49.902;10.876;2023-08-07T00:15:17;8.50;;;8.20;;
2175;SDS011;1094;49.902;10.876;2023-08-07T00:17:43;8.40;;;8.10;;
2175;SDS011;1094;49.902;10.876;2023-08-07T00:20:09;8.83;;;8.53;;
2175;SDS011;1094;49.902;10.876;2023-08-07T00:22:35;8.37;;;8.07;;
2175;SDS011;1094;49.902;10.876;2023-08-07T00:25:01;8.27;;;7.97;;
2175;SDS011;1094;49.902;10.876;2023-08-07T00:27:27;8.60;;;8.20;;
2175;SDS011;1094;49.902;10.876;2023-08-07T00:29:53;8.40;;;8.10;;
2175;SDS011;1094;49.902;10.876;2023-08-07T00:32:19;7.90;;;7.60;;
2175;SDS011;1094;49.902;10.876;2023-08-07T00:34:45;8.20;;;7.90;;
2175;SDS011;1094;49.902;10.876;2023-08-07T00:37:11;9.03;;;8.63;;
2175;SDS011;1094;49.902;10.876;2023-08-07T00:39:37;9.00;;;8.40;;
2175;SDS011;1094;49.902;10.876;2023-08-07T00:42:03;8.57;;;8.27;;
2175;SDS011;1094;49.902;10.876;2023-08-07T00:44:29;8.50;;;8.20;;
2175;SDS011;1094;49.902;10.876;2023-08-07T00:46:55;8.73;;;8.43;;
2175;SDS011;1094;49.902;10.876;2023-08-07T00:49:21;8.97;;;8.67;;
2175;SDS011;1094;49.902;10.876;2023-08-07T00:51:47;9.07;;;8.67;;
2175;SDS011;1094;49.902;10.876;2023-08-07T00:54:14;8.30;;;8.00;;
2175;SDS011;1094;49.902;10.876;2023-08-07T00:56:40;8.20;;;7.90;;
2175;SDS011;1094;49.902;10.876;2023-08-07T00:59:06;8.93;;;8.63;;
2175;SDS011;1094;49.902;10.876;2023-08-07T01:01:33;9.10;;;8.33;;
2175;SDS011;1094;49.902;10.876;2023-08-07T01:03:59;8.40;;;8.10;;
2175;SDS011;1094;49.902;10.876;2023-08-07T01:06:25;8.27;;;7.97;;
2175;SDS011;1094;49.902;10.876;2023-08-07T01:08:51;8.20;;;7.90;;
2175;SDS011;1094;49.902;10.876;2023-08-07T01:14:05;8.60;;;8.20;;
2175;SDS011;1094;49.902;10.876;2023-08-07T01:16:35;8.40;;;8.10;;
2175;SDS011;1094;49.902;10.876;2023-08-07T01:19:03;9.53;;;9.13;;
2175;SDS011;1094;49.902;10.876;2023-08-07T01:21:31;8.43;;;8.13;;
2175;SDS011;1094;49.902;10.876;2023-08-07T01:23:57;9.57;;;9.10;;
2175;SDS011;1094;49.902;10.876;2023-08-07T01:26:23;8.90;;;8.50;;
2175;SDS011;1094;49.902;10.876;2023-08-07T01:28:53;9.80;;;9.40;;
2175;SDS011;1094;49.902;10.876;2023-08-07T01:31:24;8.70;;;8.30;;
2175;SDS011;1094;49.902;10.876;2023-08-07T01:33:57;9.13;;;8.70;;
2175;SDS011;1094;49.902;10.876;2023-08-07T01:36:24;9.17;;;8.77;;
2175;SDS011;1094;49.902;10.876;2023-08-07T01:38:50;9.77;;;9.17;;
2175;SDS011;1094;49.902;10.876;2023-08-07T01:41:18;9.40;;;9.00;;
2175;SDS011;1094;49.902;10.876;2023-08-07T01:43:45;10.30;;;9.70;;
2175;SDS011;1094;49.902;10.876;2023-08-07T01:46:11;10.03;;;9.63;;
2175;SDS011;1094;49.902;10.876;2023-08-07T01:48:36;9.50;;;9.10;;
2175;SDS011;1094;49.902;10.876;2023-08-07T01:51:02;10.43;;;9.93;;
2175;SDS011;1094;49.902;10.876;2023-08-07T01:53:28;9.97;;;9.57;;
2175;SDS011;1094;49.902;10.876;2023-08-07T01:55:54;10.40;;;9.87;;
2175;SDS011;1094;49.902;10.876;2023-08-07T01:58:20;10.73;;;10.20;;
2175;SDS011;1094;49.902;10.876;2023-08-07T02:00:46;10.43;;;10.03;;
2175;SDS011;1094;49.902;10.876;2023-08-07T02:03:12;11.50;;;10.80;;
2175;SDS011;1094;49.902;10.876;2023-08-07T02:05:38;10.17;;;9.63;;
2175;SDS011;1094;49.902;10.876;2023-08-07T02:08:04;10.20;;;9.70;;
2175;SDS011;1094;49.902;10.876;2023-08-07T02:10:30;10.97;;;10.43;;
2175;SDS011;1094;49.902;10.876;2023-08-07T02:12:57;10.13;;;9.73;;
2175;SDS011;1094;49.902;10.876;2023-08-07T02:15:24;10.70;;;10.10;;
2175;SDS011;1094;49.902;10.876;2023-08-07T02:17:50;9.80;;;9.40;;
2175;SDS011;1094;49.902;10.876;2023-08-07T02:20:16;9.73;;;9.33;;
2175;SDS011;1094;49.902;10.876;2023-08-07T02:22:42;9.60;;;9.20;;
2175;SDS011;1094;49.902;10.876;2023-08-07T02:25:08;9.60;;;9.20;;
2175;SDS011;1094;49.902;10.876;2023-08-07T02:27:34;9.90;;;9.50;;
2175;SDS011;1094;49.902;10.876;2023-08-07T02:30:00;10.23;;;9.80;;
2175;SDS011;1094;49.902;10.876;2023-08-07T02:32:28;10.10;;;9.60;;
2175;SDS011;1094;49.902;10.876;2023-08-07T02:34:54;9.93;;;9.43;;
2175;SDS011;1094;49.902;10.876;2023-08-07T02:37:20;8.97;;;8.57;;
2175;SDS011;1094;49.902;10.876;2023-08-07T02:39:46;9.37;;;9.07;;
2175;SDS011;1094;49.902;10.876;2023-08-07T02:42:12;9.97;;;9.57;;
2175;SDS011;1094;49.902;10.876;2023-08-07T02:44:38;9.00;;;8.60;;
2175;SDS011;1094;49.902;10.876;2023-08-07T02:47:04;9.33;;;9.03;;
2175;SDS011;1094;49.902;10.876;2023-08-07T02:49:30;9.80;;;9.40;;
2175;SDS011;1094;49.902;10.876;2023-08-07T02:51:56;9.10;;;8.70;;
2175;SDS011;1094;49.902;10.876;2023-08-07T02:54:22;9.50;;;9.10;;
2175;SDS011;1094;49.902;10.876;2023-08-07T02:56:48;8.60;;;8.20;;
2175;SDS011;1094;49.902;10.876;2023-08-07T02:59:14;10.03;;;9.63;;
2175;SDS011;1094;49.902;10.876;2023-08-07T03:01:40;9.50;;;9.10;;
2175;SDS011;1094;49.902;10.876;2023-08-07T03:04:06;9.40;;;8.80;;
2175;SDS011;1094;49.902;10.876;2023-08-07T03:06:32;10.33;;;9.90;;
2175;SDS011;1094;49.902;10.876;2023-08-07T03:08:58;9.17;;;8.47;;
2175;SDS011;1094;49.902;10.876;2023-08-07T03:11:24;8.00;;;7.70;;
2175;SDS011;1094;49.902;10.876;2023-08-07T03:13:50;8.13;;;7.83;;
2175;SDS011;1094;49.902;10.876;2023-08-07T03:16:16;8.40;;;8.10;;
2175;SDS011;1094;49.902;10.876;2023-08-07T03:18:42;8.00;;;7.70;;
2175;SDS011;1094;49.902;10.876;2023-08-07T03:21:08;8.97;;;8.60;;
2175;SDS011;1094;49.902;10.876;2023-08-07T03:23:34;8.20;;;7.90;;
2175;SDS011;1094;49.902;10.876;2023-08-07T03:28:29;9.03;;;8.73;;
2175;SDS011;1094;49.902;10.876;2023-08-07T03:30:55;8.87;;;8.47;;
2175;SDS011;1094;49.902;10.876;2023-08-07T03:33:21;8.43;;;8.13;;
2175;SDS011;1094;49.902;10.876;2023-08-07T03:35:47;8.07;;;7.77;;
2175;SDS011;1094;49.902;10.876;2023-08-07T03:38:13;8.00;;;7.70;;
2175;SDS011;1094;49.902;10.876;2023-08-07T03:40:38;8.57;;;8.27;;
2175;SDS011;1094;49.902;10.876;2023-08-07T03:43:04;9.27;;;8.87;;
2175;SDS011;1094;49.902;10.876;2023-08-07T03:45:30;9.93;;;9.00;;
2175;SDS011;1094;49.902;10.876;2023-08-07T03:47:56;9.10;;;8.70;;
2175;SDS011;1094;49.902;10.876;2023-08-07T03:50:22;8.80;;;8.50;;
2175;SDS011;1094;49.902;10.876;2023-08-07T03:52:48;9.40;;;8.60;;
2175;SDS011;1094;49.902;10.876;2023-08-07T03:55:14;8.57;;;8.27;;
2175;SDS011;1094;49.902;10.876;2023-08-07T03:57:40;8.17;;;7.87;;
2175;SDS011;1094;49.902;10.876;2023-08-07T04:00:06;9.00;;;8.70;;
2175;SDS011;1094;49.902;10.876;2023-08-07T04:02:32;8.67;;;8.37;;
2175;SDS011;1094;49.902;10.876;2023-08-07T04:04:58;9.43;;;8.80;;
2175;SDS011;1094;49.902;10.876;2023-08-07T04:07:24;9.70;;;9.20;;
2175;SDS011;1094;49.902;10.876;2023-08-07T04:09:50;8.43;;;8.13;;
2175;SDS011;1094;49.902;10.876;2023-08-07T04:12:16;8.80;;;8.40;;
2175;SDS011;1094;49.902;10.876;2023-08-07T04:14:42;8.37;;;8.07;;
2175;SDS011;1094;49.902;10.876;2023-08-07T04:17:08;9.20;;;8.80;;
2175;SDS011;1094;49.902;10.876;2023-08-07T04:19:34;8.90;;;8.50;;
2175;SDS011;1094;49.902;10.876;2023-08-07T04:22:00;8.70;;;8.30;;
2175;SDS011;1094;49.902;10.876;2023-08-07T04:24:26;9.33;;;8.93;;
2175;SDS011;1094;49.902;10.876;2023-08-07T04:26:51;10.63;;;9.97;;
2175;SDS011;1094;49.902;10.876;2023-08-07T04:29:18;10.87;;;10.37;;
2175;SDS011;1094;49.902;10.876;2023-08-07T04:31:44;10.20;;;9.70;;
2175;SDS011;1094;49.902;10.876;2023-08-07T04:34:10;10.27;;;9.77;;
2175;SDS011;1094;49.902;10.876;2023-08-07T04:36:37;9.70;;;9.30;;
2175;SDS011;1094;49.902;10.876;2023-08-07T04:39:03;9.50;;;9.10;;
2175;SDS011;1094;49.902;10.876;2023-08-07T04:41:29;10.40;;;10.00;;
2175;SDS011;1094;49.902;10.876;2023-08-07T04:43:55;9.90;;;9.30;;
2175;SDS011;1094;49.902;10.876;2023-08-07T04:46:21;8.77;;;8.47;;
2175;SDS011;1094;49.902;10.876;2023-08-07T04:48:47;9.73;;;9.27;;
2175;SDS011;1094;49.902;10.876;2023-08-07T04:51:13;9.60;;;9.20;;
2175;SDS011;1094;49.902;10.876;2023-08-07T04:53:40;10.40;;;9.90;;
2175;SDS011;1094;49.902;10.876;2023-08-07T04:56:06;10.27;;;9.87;;
2175;SDS011;1094;49.902;10.876;2023-08-07T04:58:32;10.10;;;9.43;;
2175;SDS011;1094;49.902;10.876;2023-08-07T05:00:58;11.00;;;10.50;;
2175;SDS011;1094;49.902;10.876;2023-08-07T05:03:24;11.40;;;10.63;;
2175;SDS011;1094;49.902;10.876;2023-08-07T05:05:57;11.27;;;10.73;;
2175;SDS011;1094;49.902;10.876;2023-08-07T05:08:23;10.30;;;9.90;;
2175;SDS011;1094;49.902;10.876;2023-08-07T05:10:49;11.13;;;10.63;;
2175;SDS011;1094;49.902;10.876;2023-08-07T05:13:15;10.73;;;10.13;;
2175;SDS011;1094;49.902;10.876;2023-08-07T05:15:41;11.23;;;10.60;;
2175;SDS011;1094;49.902;10.876;2023-08-07T05:18:07;11.80;;;11.20;;
2175;SDS011;1094;49.902;10.876;2023-08-07T05:20:33;12.20;;;11.37;;
2175;SDS011;1094;49.902;10.876;2023-08-07T05:22:59;12.87;;;12.07;;
2175;SDS011;1094;49.902;10.876;2023-08-07T05:25:25;11.67;;;10.97;;
2175;SDS011;1094;49.902;10.876;2023-08-07T05:27:51;11.80;;;11.10;;
2175;SDS011;1094;49.902;10.876;2023-08-07T05:30:17;11.80;;;11.10;;
2175;SDS011;1094;49.902;10.876;2023-08-07T05:32:43;12.80;;;12.00;;
2175;SDS011;1094;49.902;10.876;2023-08-07T05:35:09;12.63;;;12.03;;
2175;SDS011;1094;49.902;10.876;2023-08-07T05:37:35;13.20;;;12.60;;
2175;SDS011;1094;49.902;10.876;2023-08-07T05:40:01;12.10;;;11.50;;
2175;SDS011;1094;49.902;10.876;2023-08-07T05:42:28;12.70;;;12.20;;
2175;SDS011;1094;49.902;10.876;2023-08-07T05:44:54;13.07;;;12.30;;
2175;SDS011;1094;49.902;10.876;2023-08-07T05:47:19;12.80;;;12.10;;
2175;SDS011;1094;49.902;10.876;2023-08-07T05:49:45;12.53;;;11.73;;
2175;SDS011;1094;49.902;10.876;2023-08-07T05:52:11;13.60;;;12.73;;
2175;SDS011;1094;49.902;10.876;2023-08-07T05:54:37;13.53;;;12.73;;
2175;SDS011;1094;49.902;10.876;2023-08-07T05:57:03;13.67;;;13.07;;
2175;SDS011;1094;49.902;10.876;2023-08-07T05:59:29;14.97;;;14.17;;
2175;SDS011;1094;49.902;10.876;2023-08-07T06:01:55;15.87;;;15.03;;
2175;SDS011;1094;49.902;10.876;2023-08-07T06:04:21;15.53;;;14.73;;
2175;SDS011;1094;49.902;10.876;2023-08-07T06:06:47;15.53;;;14.73;;
2175;SDS011;1094;49.902;10.876;2023-08-07T06:09:13;15.00;;;14.20;;
2175;SDS011;1094;49.902;10.876;2023-08-07T06:11:42;17.17;;;16.27;;
2175;SDS011;1094;49.902;10.876;2023-08-07T06:14:08;16.40;;;15.60;;
2175;SDS011;1094;49.902;10.876;2023-08-07T06:16:34;16.70;;;15.90;;
2175;SDS011;1094;49.902;10.876;2023-08-07T06:19:00;17.70;;;16.70;;
2175;SDS011;1094;49.902;10.876;2023-08-07T06:21:28;17.40;;;16.50;;
2175;SDS011;1094;49.902;10.876;2023-08-07T06:23:54;18.17;;;17.03;;
2175;SDS011;1094;49.902;10.876;2023-08-07T06:26:20;18.50;;;17.43;;
2175;SDS011;1094;49.902;10.876;2023-08-07T06:28:46;18.50;;;17.30;;
2175;SDS011;1094;49.902;10.876;2023-08-07T06:31:12;17.90;;;17.00;;
2175;SDS011;1094;49.902;10.876;2023-08-07T06:33:38;18.67;;;17.57;;
2175;SDS011;1094;49.902;10.876;2023-08-07T06:36:04;17.87;;;16.97;;
2175;SDS011;1094;49.902;10.876;2023-08-07T06:38:30;18.33;;;17.23;;
2175;SDS011;1094;49.902;10.876;2023-08-07T06:40:56;18.47;;;17.43;;
2175;SDS011;1094;49.902;10.876;2023-08-07T06:43:22;17.80;;;16.90;;
2175;SDS011;1094;49.902;10.876;2023-08-07T06:45:49;18.50;;;17.50;;
2175;SDS011;1094;49.902;10.876;2023-08-07T06:48:15;19.00;;;17.63;;
2175;SDS011;1094;49.902;10.876;2023-08-07T06:50:41;17.70;;;16.80;;
2175;SDS011;1094;49.902;10.876;2023-08-07T06:53:07;17.83;;;16.90;;
2175;SDS011;1094;49.902;10.876;2023-08-07T06:55:33;17.63;;;16.50;;
2175;SDS011;1094;49.902;10.876;2023-08-07T06:57:59;17.50;;;16.57;;
2175;SDS011;1094;49.902;10.876;2023-08-07T07:00:25;17.13;;;16.20;;
2175;SDS011;1094;49.902;10.876;2023-08-07T07:02:51;17.63;;;16.43;;
2175;SDS011;1094;49.902;10.876;2023-08-07T07:05:17;16.93;;;15.83;;
2175;SDS011;1094;49.902;10.876;2023-08-07T07:07:43;16.90;;;16.00;;
2175;SDS011;1094;49.902;10.876;2023-08-07T07:10:09;17.43;;;16.37;;
2175;SDS011;1094;49.902;10.876;2023-08-07T07:12:36;17.10;;;16.20;;
2175;SDS011;1094;49.902;10.876;2023-08-07T07:15:02;17.47;;;16.37;;
2175;SDS011;1094;49.902;10.876;2023-08-07T07:17:28;17.73;;;16.73;;
2175;SDS011;1094;49.902;10.876;2023-08-07T07:19:54;18.00;;;17.03;;
2175;SDS011;1094;49.902;10.876;2023-08-07T07:22:21;17.40;;;16.50;;
2175;SDS011;1094;49.902;10.876;2023-08-07T07:24:47;17.27;;;16.37;;
2175;SDS011;1094;49.902;10.876;2023-08-07T07:27:13;17.13;;;16.23;;
2175;SDS011;1094;49.902;10.876;2023-08-07T07:29:39;17.60;;;16.57;;
2175;SDS011;1094;49.902;10.876;2023-08-07T07:32:05;17.87;;;16.97;;
2175;SDS011;1094;49.902;10.876;2023-08-07T07:34:31;18.00;;;17.00;;
2175;SDS011;1094;49.902;10.876;2023-08-07T07:36:58;18.20;;;17.20;;
2175;SDS011;1094;49.902;10.876;2023-08-07T07:39:24;17.47;;;16.57;;
2175;SDS011;1094;49.902;10.876;2023-08-07T07:41:50;17.80;;;16.70;;
2175;SDS011;1094;49.902;10.876;2023-08-07T07:44:16;17.90;;;17.00;;
2175;SDS011;1094;49.902;10.876;2023-08-07T07:46:42;17.17;;;16.27;;
2175;SDS011;1094;49.902;10.876;2023-08-07T07:49:08;17.10;;;16.20;;
2175;SDS011;1094;49.902;10.876;2023-08-07T07:51:34;17.87;;;16.87;;
2175;SDS011;1094;49.902;10.876;2023-08-07T07:54:02;18.27;;;17.17;;
2175;SDS011;1094;49.902;10.876;2023-08-07T07:56:28;18.03;;;16.77;;
2175;SDS011;1094;49.902;10.876;2023-08-07T07:58:54;17.80;;;16.90;;
2175;SDS011;1094;49.902;10.876;2023-08-07T08:01:19;18.47;;;17.27;;
2175;SDS011;1094;49.902;10.876;2023-08-07T08:03:45;18.13;;;17.13;;
2175;SDS011;1094;49.902;10.876;2023-08-07T08:06:11;17.93;;;16.93;;
2175;SDS011;1094;49.902;10.876;2023-08-07T08:08:38;17.90;;;16.80;;
2175;SDS011;1094;49.902;10.876;2023-08-07T08:11:04;18.03;;;16.70;;
2175;SDS011;1094;49.902;10.876;2023-08-07T08:13:30;18.27;;;16.97;;
2175;SDS011;1094;49.902;10.876;2023-08-07T08:15:56;17.40;;;16.50;;
2175;SDS011;1094;49.902;10.876;2023-08-07T08:18:22;17.60;;;16.60;;
2175;SDS011;1094;49.902;10.876;2023-08-07T08:20:48;18.07;;;16.97;;
2175;SDS011;1094;49.902;10.876;2023-08-07T08:23:14;18.37;;;17.27;;
2175;SDS011;1094;49.902;10.876;2023-08-07T08:25:40;18.27;;;17.30;;
2175;SDS011;1094;49.902;10.876;2023-08-07T08:28:06;17.57;;;16.57;;
2175;SDS011;1094;49.902;10.876;2023-08-07T08:30:32;18.00;;;17.00;;
2175;SDS011;1094;49.902;10.876;2023-08-07T08:32:58;17.73;;;16.77;;
2175;SDS011;1094;49.902;10.876;2023-08-07T08:35:24;18.03;;;17.03;;
2175;SDS011;1094;49.902;10.876;2023-08-07T08:37:50;18.23;;;17.23;;
2175;SDS011;1094;49.902;10.876;2023-08-07T08:40:16;17.83;;;16.93;;
2175;SDS011;1094;49.902;10.876;2023-08-07T08:42:44;18.03;;;17.03;;
2175;SDS011;1094;49.902;10.876;2023-08-07T08:45:10;17.93;;;16.93;;
2175;SDS011;1094;49.902;10.876;2023-08-07T08:47:38;18.63;;;17.50;;
2175;SDS011;1094;49.902;10.876;2023-08-07T08:50:09;19.23;;;18.13;;
2175;SDS011;1094;49.902;10.876;2023-08-07T08:52:37;19.60;;;18.40;;
2175;SDS011;1094;49.902;10.876;2023-08-07T08:55:03;19.00;;;17.70;;
2175;SDS011;1094;49.902;10.876;2023-08-07T08:57:30;19.03;;;17.83;;
2175;SDS011;1094;49.902;10.876;2023-08-07T08:59:59;18.63;;;17.63;;
2175;SDS011;1094;49.902;10.876;2023-08-07T09:02:25;18.63;;;17.57;;
2175;SDS011;1094;49.902;10.876;2023-08-07T09:04:51;18.30;;;17.20;;
2175;SDS011;1094;49.902;10.876;2023-08-07T09:07:17;19.00;;;17.70;;
2175;SDS011;1094;49.902;10.876;2023-08-07T09:09:45;19.03;;;17.83;;
2175;SDS011;1094;49.902;10.876;2023-08-07T09:12:16;18.93;;;17.73;;
2175;SDS011;1094;49.902;10.876;2023-08-07T09:14:44;19.47;;;18.37;;
2175;SDS011;1094;49.902;10.876;2023-08-07T09:17:10;19.23;;;18.20;;
2175;SDS011;1094;49.902;10.876;2023-08-07T09:19:38;19.47;;;18.20;;
2175;SDS011;1094;49.902;10.876;2023-08-07T09:22:05;19.00;;;17.87;;
2175;SDS011;1094;49.902;10.876;2023-08-07T09:24:31;19.03;;;17.87;;
2175;SDS011;1094;49.902;10.876;2023-08-07T09:26:57;19.70;;;18.50;;
2175;SDS011;1094;49.902;10.876;2023-08-07T09:29:23;20.70;;;19.30;;
2175;SDS011;1094;49.902;10.876;2023-08-07T09:31:49;19.60;;;18.40;;
2175;SDS011;1094;49.902;10.876;2023-08-07T09:34:19;19.77;;;18.70;;
2175;SDS011;1094;49.902;10.876;2023-08-07T09:36:45;19.70;;;18.60;;
2175;SDS011;1094;49.902;10.876;2023-08-07T09:39:11;18.93;;;17.93;;
2175;SDS011;1094;49.902;10.876;2023-08-07T09:41:37;19.07;;;17.80;;
2175;SDS011;1094;49.902;10.876;2023-08-07T09:44:07;18.87;;;17.57;;
2175;SDS011;1094;49.902;10.876;2023-08-07T09:46:40;18.50;;;17.50;;
2175;SDS011;1094;49.902;10.876;2023-08-07T09:49:06;18.93;;;17.93;;
2175;SDS011;1094;49.902;10.876;2023-08-07T09:51:42;18.90;;;17.90;;
2175;SDS011;1094;49.902;10.876;2023-08-07T09:54:08;20.60;;;19.23;;
2175;SDS011;1094;49.902;10.876;2023-08-07T09:56:35;19.40;;;18.30;;
2175;SDS011;1094;49.902;10.876;2023-08-07T09:59:00;19.83;;;18.63;;
2175;SDS011;1094;49.902;10.876;2023-08-07T10:01:26;19.90;;;18.70;;
2175;SDS011;1094;49.902;10.876;2023-08-07T10:03:53;19.70;;;18.63;;
2175;SDS011;1094;49.902;10.876;2023-08-07T10:06:19;19.10;;;18.10;;
2175;SDS011;1094;49.902;10.876;2023-08-07T10:08:45;20.10;;;19.00;;
2175;SDS011;1094;49.902;10.876;2023-08-07T10:11:11;19.60;;;18.40;;
2175;SDS011;1094;49.902;10.876;2023-08-07T10:13:39;19.30;;;18.30;;
2175;SDS011;1094;49.902;10.876;2023-08-07T10:16:06;19.80;;;18.53;;
2175;SDS011;1094;49.902;10.876;2023-08-07T10:18:32;20.60;;;19.20;;
2175;SDS011;1094;49.902;10.876;2023-08-07T10:20:59;19.70;;;18.50;;
2175;SDS011;1094;49.902;10.876;2023-08-07T10:23:26;20.30;;;19.10;;
2175;SDS011;1094;49.902;10.876;2023-08-07T10:25:52;20.20;;;18.90;;
2175;SDS011;1094;49.902;10.876;2023-08-07T10:28:18;20.83;;;19.57;;
2175;SDS011;1094;49.902;10.876;2023-08-07T10:30:45;19.80;;;18.63;;
2175;SDS011;1094;49.902;10.876;2023-08-07T10:33:13;19.60;;;18.53;;
2175;SDS011;1094;49.902;10.876;2023-08-07T10:35:44;20.63;;;19.53;;
2175;SDS011;1094;49.902;10.876;2023-08-07T10:38:10;20.10;;;18.87;;
2175;SDS011;1094;49.902;10.876;2023-08-07T10:40:57;20.47;;;19.00;;
2175;SDS011;1094;49.902;10.876;2023-08-07T10:43:22;20.00;;;18.80;;
2175;SDS011;1094;49.902;10.876;2023-08-07T10:45:49;20.57;;;19.20;;
2175;SDS011;1094;49.902;10.876;2023-08-07T10:48:18;20.10;;;18.90;;
2175;SDS011;1094;49.902;10.876;2023-08-07T10:50:51;20.03;;;18.93;;
2175;SDS011;1094;49.902;10.876;2023-08-07T10:55:58;20.73;;;19.43;;
2175;SDS011;1094;49.902;10.876;2023-08-07T10:58:25;20.83;;;19.63;;
2175;SDS011;1094;49.902;10.876;2023-08-07T11:00:51;21.13;;;19.50;;
2175;SDS011;1094;49.902;10.876;2023-08-07T11:03:26;21.50;;;20.20;;
2175;SDS011;1094;49.902;10.876;2023-08-07T11:05:53;20.27;;;19.07;;
2175;SDS011;1094;49.902;10.876;2023-08-07T11:08:22;22.90;;;20.87;;
2175;SDS011;1094;49.902;10.876;2023-08-07T11:10:50;20.83;;;19.63;;
2175;SDS011;1094;49.902;10.876;2023-08-07T11:13:16;20.43;;;19.23;;
2175;SDS011;1094;49.902;10.876;2023-08-07T11:15:43;20.70;;;19.50;;
2175;SDS011;1094;49.902;10.876;2023-08-07T11:18:09;20.80;;;19.50;;
2175;SDS011;1094;49.902;10.876;2023-08-07T11:20:35;21.07;;;19.87;;
2175;SDS011;1094;49.902;10.876;2023-08-07T11:23:04;20.67;;;19.47;;
2175;SDS011;1094;49.902;10.876;2023-08-07T11:25:30;20.80;;;19.40;;
2175;SDS011;1094;49.902;10.876;2023-08-07T11:27:56;20.83;;;19.53;;
2175;SDS011;1094;49.902;10.876;2023-08-07T11:30:22;20.73;;;19.40;;
2175;SDS011;1094;49.902;10.876;2023-08-07T11:32:48;21.80;;;20.50;;
2175;SDS011;1094;49.902;10.876;2023-08-07T11:35:14;21.20;;;20.00;;
2175;SDS011;1094;49.902;10.876;2023-08-07T11:40:25;21.10;;;19.90;;
2175;SDS011;1094;49.902;10.876;2023-08-07T11:42:51;22.43;;;20.83;;
2175;SDS011;1094;49.902;10.876;2023-08-07T11:45:17;21.60;;;19.90;;
2175;SDS011;1094;49.902;10.876;2023-08-07T11:47:43;21.20;;;19.80;;
2175;SDS011;1094;49.902;10.876;2023-08-07T11:50:09;21.10;;;19.70;;
2175;SDS011;1094;49.902;10.876;2023-08-07T11:52:35;20.90;;;19.70;;
2175;SDS011;1094;49.902;10.876;2023-08-07T11:55:02;21.17;;;19.97;;
2175;SDS011;1094;49.902;10.876;2023-08-07T11:57:29;20.97;;;19.80;;
2175;SDS011;1094;49.902;10.876;2023-08-07T11:59:55;20.93;;;19.53;;
2175;SDS011;1094;49.902;10.876;2023-08-07T12:02:24;20.97;;;19.67;;
2175;SDS011;1094;49.902;10.876;2023-08-07T12:04:50;20.40;;;19.23;;
2175;SDS011;1094;49.902;10.876;2023-08-07T12:07:19;21.00;;;19.80;;
2175;SDS011;1094;49.902;10.876;2023-08-07T12:09:51;20.70;;;19.40;;
2175;SDS011;1094;49.902;10.876;2023-08-07T12:12:18;20.90;;;19.70;;
2175;SDS011;1094;49.902;10.876;2023-08-07T12:14:45;21.10;;;19.70;;
2175;SDS011;1094;49.902;10.876;2023-08-07T12:17:11;20.20;;;19.10;;
2175;SDS011;1094;49.902;10.876;2023-08-07T12:19:37;20.20;;;19.10;;
2175;SDS011;1094;49.902;10.876;2023-08-07T12:22:06;20.30;;;19.10;;
2175;SDS011;1094;49.902;10.876;2023-08-07T12:24:34;20.17;;;19.00;;
2175;SDS011;1094;49.902;10.876;2023-08-07T12:27:00;19.83;;;18.63;;
2175;SDS011;1094;49.902;10.876;2023-08-07T12:29:27;20.70;;;19.60;;
2175;SDS011;1094;49.902;10.876;2023-08-07T12:31:54;20.30;;;19.10;;
2175;SDS011;1094;49.902;10.876;2023-08-07T12:34:20;20.37;;;19.07;;
2175;SDS011;1094;49.902;10.876;2023-08-07T12:36:46;20.67;;;19.37;;
2175;SDS011;1094;49.902;10.876;2023-08-07T12:39:12;20.67;;;19.47;;
2175;SDS011;1094;49.902;10.876;2023-08-07T12:41:38;20.70;;;19.40;;
2175;SDS011;1094;49.902;10.876;2023-08-07T12:44:04;20.77;;;19.67;;
2175;SDS011;1094;49.902;10.876;2023-08-07T12:46:30;20.67;;;19.43;;
2175;SDS011;1094;49.902;10.876;2023-08-07T12:48:56;20.87;;;19.67;;
2175;SDS011;1094;49.902;10.876;2023-08-07T12:51:22;21.30;;;20.10;;
2175;SDS011;1094;49.902;10.876;2023-08-07T12:53:48;20.93;;;19.63;;
2175;SDS011;1094;49.902;10.876;2023-08-07T12:56:16;21.70;;;20.40;;
2175;SDS011;1094;49.902;10.876;2023-08-07T12:58:42;20.77;;;19.67;;
2175;SDS011;1094;49.902;10.876;2023-08-07T13:01:08;21.13;;;19.83;;
2175;SDS011;1094;49.902;10.876;2023-08-07T13:03:35;20.83;;;19.63;;
2175;SDS011;1094;49.902;10.876;2023-08-07T13:06:01;20.60;;;19.40;;
2175;SDS011;1094;49.902;10.876;2023-08-07T13:08:30;20.70;;;19.60;;
2175;SDS011;1094;49.902;10.876;2023-08-07T13:10:58;21.03;;;19.83;;
2175;SDS011;1094;49.902;10.876;2023-08-07T13:13:24;20.03;;;18.93;;
2175;SDS011;1094;49.902;10.876;2023-08-07T13:15:50;20.93;;;19.63;;
2175;SDS011;1094;49.902;10.876;2023-08-07T13:18:16;20.90;;;19.60;;
2175;SDS011;1094;49.902;10.876;2023-08-07T13:20:42;21.40;;;20.00;;
2175;SDS011;1094;49.902;10.876;2023-08-07T13:23:07;21.47;;;19.83;;
2175;SDS011;1094;49.902;10.876;2023-08-07T13:25:33;21.60;;;20.30;;
2175;SDS011;1094;49.902;10.876;2023-08-07T13:27:59;21.67;;;20.37;;
2175;SDS011;1094;49.902;10.876;2023-08-07T13:30:29;21.87;;;20.50;;
2175;SDS011;1094;49.902;10.876;2023-08-07T13:32:55;21.03;;;19.83;;
2175;SDS011;1094;49.902;10.876;2023-08-07T13:35:21;21.70;;;20.50;;
2175;SDS011;1094;49.902;10.876;2023-08-07T13:37:47;21.70;;;20.40;;
2175;SDS011;1094;49.902;10.876;2023-08-07T13:40:12;21.37;;;20.07;;
2175;SDS011;1094;49.902;10.876;2023-08-07T13:42:39;21.30;;;20.10;;
2175;SDS011;1094;49.902;10.876;2023-08-07T13:45:05;21.50;;;20.20;;
2175;SDS011;1094;49.902;10.876;2023-08-07T13:47:32;21.63;;;20.13;;
2175;SDS011;1094;49.902;10.876;2023-08-07T13:49:58;21.37;;;19.90;;
2175;SDS011;1094;49.902;10.876;2023-08-07T13:52:24;20.70;;;19.50;;
2175;SDS011;1094;49.902;10.876;2023-08-07T13:54:50;20.73;;;19.53;;
2175;SDS011;1094;49.902;10.876;2023-08-07T13:57:16;20.57;;;19.47;;
2175;SDS011;1094;49.902;10.876;2023-08-07T13:59:42;20.77;;;19.57;;
2175;SDS011;1094;49.902;10.876;2023-08-07T14:02:08;20.70;;;19.53;;
2175;SDS011;1094;49.902;10.876;2023-08-07T14:04:34;20.57;;;19.47;;
2175;SDS011;1094;49.902;10.876;2023-08-07T14:07:01;20.80;;;19.70;;
2175;SDS011;1094;49.902;10.876;2023-08-07T14:09:27;21.07;;;19.87;;
2175;SDS011;1094;49.902;10.876;2023-08-07T14:11:53;21.40;;;20.30;;
2175;SDS011;1094;49.902;10.876;2023-08-07T14:14:20;20.90;;;19.70;;
2175;SDS011;1094;49.902;10.876;2023-08-07T14:16:46;20.40;;;19.20;;
2175;SDS011;1094;49.902;10.876;2023-08-07T14:19:13;20.70;;;19.30;;
2175;SDS011;1094;49.902;10.876;2023-08-07T14:21:39;21.07;;;19.87;;
2175;SDS011;1094;49.902;10.876;2023-08-07T14:24:05;21.73;;;20.43;;
2175;SDS011;1094;49.902;10.876;2023-08-07T14:26:31;21.03;;;19.87;;
2175;SDS011;1094;49.902;10.876;2023-08-07T14:28:57;21.10;;;19.80;;
2175;SDS011;1094;49.902;10.876;2023-08-07T14:31:23;21.13;;;19.83;;
2175;SDS011;1094;49.902;10.876;2023-08-07T14:33:49;20.60;;;19.40;;
2175;SDS011;1094;49.902;10.876;2023-08-07T14:36:15;20.80;;;19.53;;
2175;SDS011;1094;49.902;10.876;2023-08-07T14:38:41;20.23;;;19.03;;
2175;SDS011;1094;49.902;10.876;2023-08-07T14:41:07;20.50;;;19.40;;
2175;SDS011;1094;49.902;10.876;2023-08-07T14:43:33;20.73;;;19.53;;
2175;SDS011;1094;49.902;10.876;2023-08-07T14:45:59;19.97;;;18.77;;
2175;SDS011;1094;49.902;10.876;2023-08-07T14:48:25;20.80;;;19.70;;